Time;durP1;ratioP1;P1;durP2;ratioP2;P2;SDS_P1;SDS_P2;PMS_P1;PMS_P2;Temp;Humidity;BMP_temperature;BMP_pressure;BME280_temperature;BME280_humidity;BME280_pressure;Samples;Min_cycle;Max_cycle;Signal;HPM_P1;HPM_P2
2023/03/16 00:00:41;;;;;;;8.13;3.85;;;;;;;;;;6277224;22;20090;-80
2023/03/16 00:03:09;;;;;;;10.48;3.88;;;;;;;;;;6248972;22;20184;-81
2023/03/16 00:05:35;;;;;;;8.07;3.92;;;;;;;;;;6247796;22;20376;-82
2023/03/16 00:08:02;;;;;;;9.50;4.20;;;;;;;;;;6275350;22;20449;-80
2023/03/16 00:10:29;;;;;;;6.97;3.65;;;;;;;;;;6277614;22;20125;-81
2023/03/16 00:12:56;;;;;;;8.32;3.70;;;;;;;;;;6247484;22;20028;-81
2023/03/16 00:15:23;;;;;;;7.53;3.75;;;;;;;;;;6275523;22;20469;-82
2023/03/16 00:17:49;;;;;;;7.20;3.75;;;;;;;;;;6275448;22;20024;-81
2023/03/16 00:20:17;;;;;;;7.38;3.95;;;;;;;;;;6276699;22;20023;-81
2023/03/16 00:22:43;;;;;;;9.02;4.30;;;;;;;;;;6275866;22;20028;-80
2023/03/16 00:25:11;;;;;;;8.32;4.10;;;;;;;;;;6247095;22;20034;-81
2023/03/16 00:27:37;;;;;;;9.90;3.95;;;;;;;;;;6275253;22;20020;-82
2023/03/16 00:30:04;;;;;;;9.77;4.40;;;;;;;;;;6274806;22;20067;-81
2023/03/16 00:32:32;;;;;;;8.60;4.03;;;;;;;;;;6275240;22;20024;-81
2023/03/16 00:35:00;;;;;;;10.32;4.38;;;;;;;;;;6273632;22;20027;-81
2023/03/16 00:37:27;;;;;;;8.80;4.50;;;;;;;;;;6246448;22;20032;-81
2023/03/16 00:39:57;;;;;;;9.68;4.00;;;;;;;;;;6275133;22;20028;-80
2023/03/16 00:42:26;;;;;;;8.73;4.00;;;;;;;;;;6247718;22;20090;-81
2023/03/16 00:44:56;;;;;;;10.20;4.72;;;;;;;;;;6273277;22;20144;-81
2023/03/16 00:47:24;;;;;;;7.60;4.07;;;;;;;;;;6246793;22;20098;-82
2023/03/16 00:49:50;;;;;;;12.27;4.47;;;;;;;;;;6275945;22;20024;-81
2023/03/16 00:52:17;;;;;;;9.75;4.55;;;;;;;;;;6274890;22;20115;-80
2023/03/16 00:54:44;;;;;;;11.05;5.03;;;;;;;;;;6274488;22;20012;-81
2023/03/16 00:57:11;;;;;;;10.85;4.15;;;;;;;;;;6274213;22;20051;-81
2023/03/16 00:59:38;;;;;;;10.45;4.65;;;;;;;;;;6275496;22;20547;-82
2023/03/16 01:02:05;;;;;;;10.35;4.57;;;;;;;;;;6248749;22;20020;-80
2023/03/16 01:04:34;;;;;;;10.13;4.70;;;;;;;;;;6268469;22;20548;-82
2023/03/16 01:07:04;;;;;;;11.07;4.55;;;;;;;;;;6242834;22;20074;-81
2023/03/16 01:09:35;;;;;;;9.10;4.57;;;;;;;;;;6243698;22;20025;-81
2023/03/16 01:12:05;;;;;;;12.07;4.80;;;;;;;;;;6244104;22;20095;-81
2023/03/16 01:14:33;;;;;;;8.30;4.70;;;;;;;;;;6268787;22;20020;-81
2023/03/16 01:17:00;;;;;;;9.27;5.10;;;;;;;;;;6242091;22;20040;-82
2023/03/16 01:19:27;;;;;;;9.02;4.53;;;;;;;;;;6243914;22;20046;-83
2023/03/16 01:21:53;;;;;;;10.40;5.15;;;;;;;;;;6270504;22;20845;-82
2023/03/16 01:24:20;;;;;;;8.30;4.35;;;;;;;;;;6270357;22;20477;-81
2023/03/16 01:26:46;;;;;;;11.10;4.95;;;;;;;;;;6270026;22;20086;-82
2023/03/16 01:29:13;;;;;;;10.82;4.57;;;;;;;;;;6272189;22;20028;-81
2023/03/16 01:31:39;;;;;;;12.23;4.60;;;;;;;;;;6269750;22;20024;-81
2023/03/16 01:34:06;;;;;;;10.70;4.70;;;;;;;;;;6270241;22;20035;-81
2023/03/16 01:36:32;;;;;;;10.68;4.70;;;;;;;;;;6270648;22;20063;-82
2023/03/16 01:38:59;;;;;;;11.77;5.10;;;;;;;;;;6270461;22;20928;-81
2023/03/16 01:41:26;;;;;;;8.10;4.13;;;;;;;;;;6271842;22;20028;-82
2023/03/16 01:43:57;;;;;;;11.05;4.53;;;;;;;;;;6241306;22;20028;-82
2023/03/16 01:46:27;;;;;;;9.55;4.60;;;;;;;;;;6270117;22;20775;-81
2023/03/16 01:48:56;;;;;;;8.80;4.63;;;;;;;;;;6270938;22;20849;-81
2023/03/16 01:51:26;;;;;;;10.45;4.63;;;;;;;;;;6271217;22;20574;-82
2023/03/16 01:53:54;;;;;;;8.27;4.10;;;;;;;;;;6269713;22;20024;-80
2023/03/16 01:56:23;;;;;;;12.90;4.72;;;;;;;;;;6270373;22;20639;-82
2023/03/16 01:58:50;;;;;;;10.25;4.85;;;;;;;;;;6244972;22;20313;-82
2023/03/16 02:01:17;;;;;;;8.73;4.55;;;;;;;;;;6271198;22;20099;-80
2023/03/16 02:03:44;;;;;;;10.18;4.78;;;;;;;;;;6269586;22;20013;-81
2023/03/16 02:06:13;;;;;;;10.25;5.18;;;;;;;;;;6269268;22;20027;-81
2023/03/16 02:08:41;;;;;;;8.85;4.50;;;;;;;;;;6271852;22;20027;-82
2023/03/16 02:11:08;;;;;;;10.93;5.25;;;;;;;;;;6245047;22;20056;-81
2023/03/16 02:13:38;;;;;;;9.55;4.80;;;;;;;;;;6269675;22;20154;-81
2023/03/16 02:16:05;;;;;;;9.63;5.25;;;;;;;;;;6272183;22;20039;-82
2023/03/16 02:18:32;;;;;;;9.80;4.45;;;;;;;;;;6273230;22;20027;-82
2023/03/16 02:21:04;;;;;;;9.43;4.90;;;;;;;;;;6273433;22;20127;-82
2023/03/16 02:23:31;;;;;;;9.65;4.65;;;;;;;;;;6245404;22;20030;-82
2023/03/16 02:26:07;;;;;;;10.10;4.78;;;;;;;;;;6245453;22;20024;-81
2023/03/16 02:28:43;;;;;;;8.80;4.70;;;;;;;;;;6247280;22;20028;-81
2023/03/16 02:31:11;;;;;;;9.30;4.75;;;;;;;;;;6245708;22;20024;-81
2023/03/16 02:33:38;;;;;;;10.52;5.10;;;;;;;;;;6245321;22;20016;-81
2023/03/16 02:36:05;;;;;;;13.00;5.53;;;;;;;;;;6271944;22;20031;-82
2023/03/16 02:38:31;;;;;;;9.50;4.72;;;;;;;;;;6273988;22;20020;-82
2023/03/16 02:41:10;;;;;;;10.40;5.13;;;;;;;;;;6245915;22;21022;-81
2023/03/16 02:43:37;;;;;;;13.45;5.38;;;;;;;;;;6272130;22;20008;-82
2023/03/16 02:46:04;;;;;;;11.43;5.35;;;;;;;;;;6272756;22;20034;-82
2023/03/16 02:48:34;;;;;;;9.30;4.72;;;;;;;;;;6274265;22;20055;-81
2023/03/16 02:51:00;;;;;;;9.40;5.18;;;;;;;;;;6273420;22;20019;-81
2023/03/16 02:53:26;;;;;;;13.23;4.95;;;;;;;;;;6271584;22;20046;-81
2023/03/16 02:55:53;;;;;;;10.70;4.90;;;;;;;;;;6271411;22;20114;-81
2023/03/16 02:58:20;;;;;;;11.18;4.82;;;;;;;;;;6271326;22;20020;-81
2023/03/16 03:00:46;;;;;;;9.55;5.00;;;;;;;;;;6246169;22;20563;-82
2023/03/16 03:03:13;;;;;;;8.70;4.53;;;;;;;;;;6270805;22;20035;-82
2023/03/16 03:05:39;;;;;;;11.40;4.93;;;;;;;;;;6272712;22;20016;-82
2023/03/16 03:08:06;;;;;;;8.10;4.22;;;;;;;;;;6247133;22;20031;-81
2023/03/16 03:10:32;;;;;;;9.05;5.13;;;;;;;;;;6273776;22;20080;-82
2023/03/16 03:12:58;;;;;;;10.27;4.90;;;;;;;;;;6271444;22;20034;-80
2023/03/16 03:15:25;;;;;;;9.93;4.72;;;;;;;;;;6271406;22;20028;-82
2023/03/16 03:17:51;;;;;;;10.65;5.45;;;;;;;;;;6273974;22;20084;-81
2023/03/16 03:20:18;;;;;;;9.15;4.63;;;;;;;;;;6272949;22;20023;-82
2023/03/16 03:22:46;;;;;;;8.55;4.65;;;;;;;;;;6271646;22;20028;-81
2023/03/16 03:25:13;;;;;;;9.10;4.30;;;;;;;;;;6272392;22;20016;-81
2023/03/16 03:27:41;;;;;;;8.98;4.60;;;;;;;;;;6273035;22;20630;-80
2023/03/16 03:30:12;;;;;;;12.90;4.93;;;;;;;;;;6246222;22;20012;-81
2023/03/16 03:32:38;;;;;;;9.52;5.05;;;;;;;;;;6272280;22;20040;-81
2023/03/16 03:35:05;;;;;;;8.52;4.93;;;;;;;;;;6271519;22;20028;-81
2023/03/16 03:37:32;;;;;;;9.48;4.53;;;;;;;;;;6274239;22;21284;-81
2023/03/16 03:39:58;;;;;;;9.60;4.60;;;;;;;;;;6275264;22;20071;-81
2023/03/16 03:42:24;;;;;;;11.25;4.90;;;;;;;;;;6274633;22;20024;-82
2023/03/16 03:44:51;;;;;;;9.90;5.13;;;;;;;;;;6272844;22;20077;-81
2023/03/16 03:47:18;;;;;;;9.68;4.88;;;;;;;;;;6273947;22;20854;-81
2023/03/16 03:49:44;;;;;;;10.38;5.20;;;;;;;;;;6272686;22;20066;-80
2023/03/16 03:52:11;;;;;;;8.38;4.65;;;;;;;;;;6272150;22;20068;-81
2023/03/16 03:54:37;;;;;;;13.00;5.75;;;;;;;;;;6272042;22;20056;-82
2023/03/16 03:57:04;;;;;;;10.98;5.22;;;;;;;;;;6246770;22;20020;-81
2023/03/16 03:59:30;;;;;;;12.65;5.65;;;;;;;;;;6274958;22;20024;-82
2023/03/16 04:01:57;;;;;;;11.10;4.97;;;;;;;;;;6273931;22;20490;-81
2023/03/16 04:04:23;;;;;;;8.68;4.68;;;;;;;;;;6245560;22;20030;-81
2023/03/16 04:06:50;;;;;;;10.07;5.28;;;;;;;;;;6273561;22;20109;-82
2023/03/16 04:09:16;;;;;;;10.00;5.43;;;;;;;;;;6246733;22;20046;-81
2023/03/16 04:11:43;;;;;;;14.80;5.88;;;;;;;;;;6274249;22;20078;-82
2023/03/16 04:14:09;;;;;;;10.65;5.38;;;;;;;;;;6246568;22;20103;-81
2023/03/16 04:16:36;;;;;;;14.88;5.55;;;;;;;;;;6274530;22;20028;-82
2023/03/16 04:19:03;;;;;;;12.23;5.60;;;;;;;;;;6274436;22;20476;-81
2023/03/16 04:21:30;;;;;;;12.77;5.22;;;;;;;;;;6274373;22;20020;-81
2023/03/16 04:23:56;;;;;;;9.70;4.82;;;;;;;;;;6273004;22;20083;-81
2023/03/16 04:26:24;;;;;;;14.15;5.60;;;;;;;;;;6274634;22;20008;-80
2023/03/16 04:28:51;;;;;;;9.57;4.65;;;;;;;;;;6274056;22;20043;-81
2023/03/16 04:31:18;;;;;;;8.93;4.90;;;;;;;;;;6246668;22;20020;-81
2023/03/16 04:33:44;;;;;;;13.68;4.90;;;;;;;;;;6273235;22;20020;-82
2023/03/16 04:36:11;;;;;;;11.60;4.90;;;;;;;;;;6247497;22;20035;-82
2023/03/16 04:38:37;;;;;;;11.18;5.50;;;;;;;;;;6273570;22;20023;-83
2023/03/16 04:41:04;;;;;;;11.07;5.40;;;;;;;;;;6273999;22;21149;-83
2023/03/16 04:43:33;;;;;;;12.20;5.07;;;;;;;;;;6275076;22;20020;-80
2023/03/16 04:46:00;;;;;;;11.18;5.13;;;;;;;;;;6243581;22;20567;-82
2023/03/16 04:48:27;;;;;;;12.73;5.03;;;;;;;;;;6242801;22;20029;-81
2023/03/16 04:50:53;;;;;;;13.20;5.57;;;;;;;;;;6244195;22;20154;-81
2023/03/16 04:53:20;;;;;;;7.75;4.68;;;;;;;;;;6242651;22;20076;-82
2023/03/16 04:55:47;;;;;;;9.35;4.53;;;;;;;;;;6243987;22;20013;-81
2023/03/16 04:58:14;;;;;;;9.57;5.00;;;;;;;;;;6243274;22;20110;-81
2023/03/16 05:00:40;;;;;;;10.55;4.57;;;;;;;;;;6244040;22;20029;-81
2023/03/16 05:03:09;;;;;;;9.77;4.93;;;;;;;;;;6242311;22;20028;-82
2023/03/16 05:05:39;;;;;;;8.85;4.60;;;;;;;;;;6216599;22;20072;-81
2023/03/16 05:08:06;;;;;;;10.85;4.40;;;;;;;;;;6216333;22;20032;-82
2023/03/16 05:10:32;;;;;;;8.88;4.15;;;;;;;;;;6244140;22;20020;-81
2023/03/16 05:12:59;;;;;;;12.40;4.63;;;;;;;;;;6213600;22;20024;-81
2023/03/16 05:15:26;;;;;;;8.70;4.65;;;;;;;;;;6240714;22;20028;-83
2023/03/16 05:17:54;;;;;;;10.45;4.80;;;;;;;;;;6213778;22;20016;-82
2023/03/16 05:20:21;;;;;;;8.60;4.50;;;;;;;;;;6214973;22;20055;-82
2023/03/16 05:22:48;;;;;;;10.25;4.78;;;;;;;;;;6240741;22;20052;-81
2023/03/16 05:25:15;;;;;;;10.75;4.90;;;;;;;;;;6242344;22;20028;-82
2023/03/16 05:27:45;;;;;;;9.25;4.82;;;;;;;;;;6214330;22;20029;-81
2023/03/16 05:30:12;;;;;;;10.43;4.95;;;;;;;;;;6215498;22;20021;-81
2023/03/16 05:32:39;;;;;;;11.15;4.30;;;;;;;;;;6240812;22;20031;-81
2023/03/16 05:35:06;;;;;;;10.18;4.60;;;;;;;;;;6215070;22;20103;-81
2023/03/16 05:37:33;;;;;;;10.13;4.38;;;;;;;;;;6242443;22;20415;-82
2023/03/16 05:40:00;;;;;;;10.43;4.63;;;;;;;;;;6242090;22;20093;-80
2023/03/16 05:42:26;;;;;;;9.98;4.80;;;;;;;;;;6217551;22;20075;-80
2023/03/16 05:44:53;;;;;;;10.82;4.60;;;;;;;;;;6259362;22;20023;-82
2023/03/16 05:47:19;;;;;;;12.02;5.22;;;;;;;;;;6273870;22;20890;-82
2023/03/16 05:49:46;;;;;;;11.93;4.50;;;;;;;;;;6270758;22;20031;-82
2023/03/16 05:52:12;;;;;;;11.25;4.93;;;;;;;;;;6242921;22;20080;-81
2023/03/16 05:54:39;;;;;;;9.82;4.82;;;;;;;;;;6269802;22;20036;-80
2023/03/16 05:57:05;;;;;;;10.13;4.65;;;;;;;;;;6241891;22;20523;-82
2023/03/16 05:59:32;;;;;;;11.23;4.18;;;;;;;;;;6270590;22;20448;-83
2023/03/16 06:01:58;;;;;;;11.52;4.65;;;;;;;;;;6271221;22;20038;-82
2023/03/16 06:04:25;;;;;;;9.20;4.28;;;;;;;;;;6270991;22;20028;-83
2023/03/16 06:06:52;;;;;;;11.63;4.43;;;;;;;;;;6245968;22;20051;-82
2023/03/16 06:09:18;;;;;;;10.25;4.30;;;;;;;;;;6269822;22;20027;-83
2023/03/16 06:11:44;;;;;;;7.93;3.95;;;;;;;;;;6273556;22;20028;-83
2023/03/16 06:14:11;;;;;;;10.65;4.80;;;;;;;;;;6271900;22;20008;-83
2023/03/16 06:16:37;;;;;;;11.73;4.60;;;;;;;;;;6272473;22;20055;-84
2023/03/16 06:19:04;;;;;;;8.98;4.50;;;;;;;;;;6244559;22;20024;-83
2023/03/16 06:21:33;;;;;;;11.43;4.68;;;;;;;;;;6246018;22;20030;-82
2023/03/16 06:24:00;;;;;;;8.30;3.90;;;;;;;;;;6243282;22;20150;-83
2023/03/16 06:26:26;;;;;;;10.00;4.85;;;;;;;;;;6244687;22;20023;-83
2023/03/16 06:28:53;;;;;;;10.38;4.45;;;;;;;;;;6272348;22;20056;-81
2023/03/16 06:31:19;;;;;;;12.00;4.15;;;;;;;;;;6272219;22;20020;-84
2023/03/16 06:33:46;;;;;;;9.55;4.13;;;;;;;;;;6268417;22;20032;-84
2023/03/16 06:36:13;;;;;;;9.60;4.05;;;;;;;;;;6271403;22;20163;-82
2023/03/16 06:38:40;;;;;;;12.20;4.03;;;;;;;;;;6246052;22;20020;-84
2023/03/16 06:41:06;;;;;;;10.90;3.90;;;;;;;;;;6272036;22;20127;-82
2023/03/16 06:43:33;;;;;;;13.52;3.47;;;;;;;;;;6244600;22;20305;-83
2023/03/16 06:46:00;;;;;;;9.35;3.83;;;;;;;;;;6271040;22;20123;-84
2023/03/16 06:48:26;;;;;;;9.05;4.13;;;;;;;;;;6242899;22;20092;-83
2023/03/16 06:50:53;;;;;;;10.80;4.13;;;;;;;;;;6270716;22;20027;-83
2023/03/16 06:53:21;;;;;;;10.30;4.18;;;;;;;;;;6270236;22;20035;-84
2023/03/16 06:55:47;;;;;;;13.68;4.47;;;;;;;;;;6243923;22;20024;-84
2023/03/16 06:58:13;;;;;;;12.32;4.60;;;;;;;;;;6271746;22;20628;-83
2023/03/16 07:00:40;;;;;;;7.97;4.22;;;;;;;;;;6272223;22;20035;-82
2023/03/16 07:03:07;;;;;;;11.30;5.00;;;;;;;;;;6271966;22;20236;-83
2023/03/16 07:05:33;;;;;;;10.90;5.30;;;;;;;;;;6271787;22;20639;-84
2023/03/16 07:08:00;;;;;;;11.30;4.13;;;;;;;;;;6272412;22;20067;-84
2023/03/16 07:10:26;;;;;;;10.70;3.70;;;;;;;;;;6271881;22;20574;-83
2023/03/16 07:12:54;;;;;;;8.50;3.83;;;;;;;;;;6244986;22;20028;-82
2023/03/16 07:15:21;;;;;;;7.50;3.63;;;;;;;;;;6247676;22;20613;-84
2023/03/16 07:17:47;;;;;;;12.38;3.67;;;;;;;;;;6273273;22;20032;-84
2023/03/16 07:20:14;;;;;;;7.68;4.07;;;;;;;;;;6273848;22;20076;-81
2023/03/16 07:22:40;;;;;;;7.25;3.92;;;;;;;;;;6244283;22;20035;-84
2023/03/16 07:25:07;;;;;;;13.80;3.85;;;;;;;;;;6245394;22;20027;-83
2023/03/16 07:27:33;;;;;;;12.35;4.20;;;;;;;;;;6244695;22;20040;-82
2023/03/16 07:30:00;;;;;;;10.90;4.40;;;;;;;;;;6272711;22;20071;-81
2023/03/16 07:32:26;;;;;;;10.02;4.18;;;;;;;;;;6273602;22;20090;-83
2023/03/16 07:34:53;;;;;;;10.73;4.60;;;;;;;;;;6243002;22;20486;-84
2023/03/16 07:37:20;;;;;;;7.63;3.92;;;;;;;;;;6274035;22;20024;-83
2023/03/16 07:39:50;;;;;;;10.27;4.28;;;;;;;;;;6241701;22;20059;-81
2023/03/16 07:42:17;;;;;;;9.15;3.90;;;;;;;;;;6268441;22;20107;-80
2023/03/16 07:44:43;;;;;;;8.48;4.25;;;;;;;;;;6268296;22;20031;-80
2023/03/16 07:47:12;;;;;;;8.70;4.68;;;;;;;;;;6271750;22;20424;-80
2023/03/16 07:49:40;;;;;;;10.52;4.63;;;;;;;;;;6273173;22;20975;-80
2023/03/16 07:52:06;;;;;;;8.70;4.05;;;;;;;;;;6246577;22;20055;-82
2023/03/16 07:54:33;;;;;;;8.15;4.45;;;;;;;;;;6271680;22;20528;-82
2023/03/16 07:57:00;;;;;;;8.13;3.78;;;;;;;;;;6272477;22;20016;-82
2023/03/16 07:59:26;;;;;;;9.20;4.45;;;;;;;;;;6245895;22;20028;-82
2023/03/16 08:01:52;;;;;;;10.82;4.57;;;;;;;;;;6271818;22;20028;-82
2023/03/16 08:04:19;;;;;;;10.15;4.35;;;;;;;;;;6270947;22;20042;-83
2023/03/16 08:06:46;;;;;;;8.82;4.00;;;;;;;;;;6270566;22;20024;-82
2023/03/16 08:09:13;;;;;;;12.63;4.78;;;;;;;;;;6270973;22;20055;-82
2023/03/16 08:11:40;;;;;;;7.60;4.53;;;;;;;;;;6244592;22;20058;-83
2023/03/16 08:14:06;;;;;;;8.55;4.30;;;;;;;;;;6243037;22;20073;-83
2023/03/16 08:16:33;;;;;;;13.65;5.53;;;;;;;;;;6270697;22;20008;-83
2023/03/16 08:19:00;;;;;;;9.07;4.60;;;;;;;;;;6271137;22;20027;-83
2023/03/16 08:21:27;;;;;;;8.75;4.13;;;;;;;;;;6270634;22;20027;-83
2023/03/16 08:23:53;;;;;;;9.90;4.20;;;;;;;;;;6268304;22;20107;-83
2023/03/16 08:26:20;;;;;;;8.98;3.72;;;;;;;;;;6270741;22;20099;-83
2023/03/16 08:28:47;;;;;;;8.23;3.90;;;;;;;;;;6270176;22;20066;-82
2023/03/16 08:31:15;;;;;;;8.82;4.30;;;;;;;;;;6242421;22;20031;-83
2023/03/16 08:33:42;;;;;;;7.43;4.20;;;;;;;;;;6267158;22;20034;-83
2023/03/16 08:36:10;;;;;;;6.72;4.05;;;;;;;;;;6270408;22;20024;-83
2023/03/16 08:38:38;;;;;;;9.20;4.68;;;;;;;;;;6270144;22;20020;-83
2023/03/16 08:41:05;;;;;;;11.15;5.05;;;;;;;;;;6243071;22;20109;-83
2023/03/16 08:43:32;;;;;;;8.70;4.25;;;;;;;;;;6269122;22;20023;-83
2023/03/16 08:45:58;;;;;;;10.27;5.20;;;;;;;;;;6270125;22;20012;-83
2023/03/16 08:48:25;;;;;;;9.20;4.57;;;;;;;;;;6269627;22;20020;-83
2023/03/16 08:50:52;;;;;;;7.43;4.10;;;;;;;;;;6269221;22;20029;-83
2023/03/16 08:53:19;;;;;;;10.75;5.10;;;;;;;;;;6242623;22;20030;-83
2023/03/16 08:55:47;;;;;;;9.60;4.22;;;;;;;;;;6241494;22;20024;-83
2023/03/16 08:58:14;;;;;;;8.77;3.97;;;;;;;;;;6243180;22;20619;-83
2023/03/16 09:00:41;;;;;;;10.60;4.40;;;;;;;;;;6241177;22;20035;-83
2023/03/16 09:03:10;;;;;;;10.00;4.35;;;;;;;;;;6269135;22;20024;-83
2023/03/16 09:05:37;;;;;;;7.55;4.32;;;;;;;;;;6269557;22;20024;-83
2023/03/16 09:08:06;;;;;;;9.70;4.53;;;;;;;;;;6267811;22;20107;-83
2023/03/16 09:10:32;;;;;;;9.90;4.15;;;;;;;;;;6270231;22;20031;-83
2023/03/16 09:12:59;;;;;;;8.95;4.05;;;;;;;;;;6266922;22;20661;-83
2023/03/16 09:15:25;;;;;;;8.25;3.95;;;;;;;;;;6242996;22;20035;-83
2023/03/16 09:17:53;;;;;;;10.10;4.15;;;;;;;;;;6269103;22;20090;-84
2023/03/16 09:20:19;;;;;;;9.45;3.67;;;;;;;;;;6241528;22;20035;-83
2023/03/16 09:23:00;;;;;;;8.40;4.30;;;;;;;;;;6267749;22;20075;-84
2023/03/16 09:25:26;;;;;;;9.23;4.05;;;;;;;;;;6266877;22;20036;-83
2023/03/16 09:27:54;;;;;;;9.90;3.90;;;;;;;;;;6267648;22;20131;-83
2023/03/16 09:30:20;;;;;;;8.32;3.95;;;;;;;;;;6240742;22;20052;-82
2023/03/16 09:32:47;;;;;;;11.27;4.25;;;;;;;;;;6239486;22;20027;-82
2023/03/16 09:35:16;;;;;;;10.90;4.57;;;;;;;;;;6241989;22;20449;-82
2023/03/16 09:37:43;;;;;;;8.95;3.83;;;;;;;;;;6267934;22;20028;-82
2023/03/16 09:40:29;;;;;;;8.77;3.67;;;;;;;;;;6245888;22;20028;-79
2023/03/16 09:42:59;;;;;;;9.95;3.60;;;;;;;;;;6265854;22;20082;-81
2023/03/16 09:45:33;;;;;;;8.55;4.07;;;;;;;;;;6266361;22;20026;-81
2023/03/16 09:48:02;;;;;;;8.23;3.63;;;;;;;;;;6269063;22;20075;-80
2023/03/16 09:50:32;;;;;;;10.30;3.75;;;;;;;;;;6240442;22;20064;-80
2023/03/16 09:53:13;;;;;;;6.90;3.45;;;;;;;;;;6243800;22;20034;-79
2023/03/16 09:55:41;;;;;;;7.95;3.80;;;;;;;;;;6267992;22;20082;-79
2023/03/16 09:58:18;;;;;;;8.95;3.60;;;;;;;;;;6268603;22;20765;-80
2023/03/16 10:00:49;;;;;;;8.60;3.78;;;;;;;;;;6267465;22;20071;-79
2023/03/16 10:03:29;;;;;;;9.13;3.92;;;;;;;;;;6267971;22;20477;-80
2023/03/16 10:05:59;;;;;;;8.50;3.60;;;;;;;;;;6268746;22;20396;-80
2023/03/16 10:08:37;;;;;;;9.93;3.55;;;;;;;;;;6242420;22;20031;-83
2023/03/16 10:11:09;;;;;;;7.32;3.20;;;;;;;;;;6268366;22;20082;-80
2023/03/16 10:13:39;;;;;;;6.95;3.55;;;;;;;;;;6242005;22;20036;-80
2023/03/16 10:16:13;;;;;;;6.45;3.00;;;;;;;;;;6241871;22;20059;-81
2023/03/16 10:18:43;;;;;;;10.20;3.42;;;;;;;;;;6268392;22;20103;-81
2023/03/16 10:21:12;;;;;;;6.53;3.15;;;;;;;;;;6241707;22;20107;-81
2023/03/16 10:23:40;;;;;;;8.43;3.03;;;;;;;;;;6265988;22;20016;-81
2023/03/16 10:26:17;;;;;;;6.07;3.00;;;;;;;;;;6267846;22;20024;-81
2023/03/16 10:28:45;;;;;;;6.90;3.10;;;;;;;;;;6240396;22;20814;-81
2023/03/16 10:31:12;;;;;;;6.28;3.03;;;;;;;;;;6241743;22;20417;-81
2023/03/16 10:33:39;;;;;;;11.38;3.25;;;;;;;;;;6237881;22;20865;-82
2023/03/16 10:36:11;;;;;;;7.07;3.08;;;;;;;;;;6266538;22;20056;-82
2023/03/16 10:38:45;;;;;;;5.88;2.90;;;;;;;;;;6267335;22;20027;-83
2023/03/16 10:41:19;;;;;;;7.00;3.13;;;;;;;;;;6239357;22;20531;-82
2023/03/16 10:43:56;;;;;;;7.35;3.05;;;;;;;;;;6239004;22;20024;-82
2023/03/16 10:46:26;;;;;;;6.78;2.95;;;;;;;;;;6267024;22;20024;-82
2023/03/16 10:48:53;;;;;;;7.70;2.97;;;;;;;;;;6266487;22;20111;-82
2023/03/16 10:51:24;;;;;;;9.63;3.17;;;;;;;;;;6239138;22;20542;-82
2023/03/16 10:53:50;;;;;;;10.10;3.10;;;;;;;;;;6265429;22;20028;-82
2023/03/16 10:56:22;;;;;;;6.82;3.00;;;;;;;;;;6266333;22;20558;-81
2023/03/16 10:58:49;;;;;;;7.13;2.83;;;;;;;;;;6241145;22;20024;-82
2023/03/16 11:01:20;;;;;;;9.73;2.55;;;;;;;;;;6241730;22;20028;-82
2023/03/16 11:03:50;;;;;;;5.75;2.83;;;;;;;;;;6267023;22;20016;-81
2023/03/16 11:06:29;;;;;;;6.82;3.00;;;;;;;;;;6240990;22;20027;-81
2023/03/16 11:09:18;;;;;;;5.28;2.40;;;;;;;;;;6268789;22;20075;-82
2023/03/16 11:11:48;;;;;;;7.25;2.72;;;;;;;;;;6269231;22;20030;-81
2023/03/16 11:14:18;;;;;;;8.18;2.90;;;;;;;;;;6265766;22;20672;-81
2023/03/16 11:16:46;;;;;;;5.73;2.67;;;;;;;;;;6241364;22;20927;-82
2023/03/16 11:19:28;;;;;;;7.28;2.83;;;;;;;;;;6268570;22;20020;-82
2023/03/16 11:22:13;;;;;;;7.32;3.10;;;;;;;;;;6268478;22;20056;-81
2023/03/16 11:24:49;;;;;;;8.55;3.10;;;;;;;;;;6268945;22;20020;-81
2023/03/16 11:27:30;;;;;;;7.32;2.85;;;;;;;;;;6268785;22;20614;-81
2023/03/16 11:29:58;;;;;;;7.88;2.97;;;;;;;;;;6242653;22;20067;-81
2023/03/16 11:32:26;;;;;;;7.25;2.80;;;;;;;;;;6269696;22;20104;-81
2023/03/16 11:34:53;;;;;;;6.10;2.67;;;;;;;;;;6242414;22;20079;-81
2023/03/16 11:37:26;;;;;;;7.63;3.08;;;;;;;;;;6269706;22;20059;-81
2023/03/16 11:40:14;;;;;;;5.65;2.70;;;;;;;;;;6271560;22;20063;-82
2023/03/16 11:42:48;;;;;;;6.00;2.60;;;;;;;;;;6272196;22;20032;-84
2023/03/16 11:45:27;;;;;;;7.40;2.88;;;;;;;;;;6277187;22;20020;-84
2023/03/16 11:48:00;;;;;;;7.07;2.80;;;;;;;;;;6275010;22;20916;-84
2023/03/16 11:50:35;;;;;;;6.63;2.35;;;;;;;;;;6249083;22;20201;-84
2023/03/16 11:53:03;;;;;;;5.88;2.30;;;;;;;;;;6247995;22;20024;-84
2023/03/16 11:55:38;;;;;;;5.13;2.50;;;;;;;;;;6248686;22;20080;-84
2023/03/16 11:58:23;;;;;;;5.90;2.72;;;;;;;;;;6275919;22;20020;-84
2023/03/16 12:00:58;;;;;;;6.90;2.50;;;;;;;;;;6276024;22;20065;-84
2023/03/16 12:03:39;;;;;;;5.50;2.55;;;;;;;;;;6276161;22;20024;-84
2023/03/16 12:06:24;;;;;;;6.55;2.47;;;;;;;;;;6275602;22;20078;-84
2023/03/16 12:08:52;;;;;;;10.68;2.67;;;;;;;;;;6276014;22;20111;-84
2023/03/16 12:11:23;;;;;;;6.20;2.55;;;;;;;;;;6249359;22;20038;-83
2023/03/16 12:13:51;;;;;;;5.57;2.63;;;;;;;;;;6274903;22;20016;-83
2023/03/16 12:16:25;;;;;;;7.18;2.60;;;;;;;;;;6247612;22;20016;-84
2023/03/16 12:19:00;;;;;;;;;;;;;;;;;;6251860;22;20039;-84
2023/03/16 12:21:26;;;;;;;4.63;2.10;;;;;;;;;;6245079;22;45155;-84
2023/03/16 12:23:55;;;;;;;5.85;2.28;;;;;;;;;;6270697;22;20038;-84
2023/03/16 12:26:24;;;;;;;5.93;2.42;;;;;;;;;;6275114;22;20031;-85
2023/03/16 12:28:51;;;;;;;6.18;2.55;;;;;;;;;;6272545;22;20031;-83
2023/03/16 12:31:27;;;;;;;5.78;2.20;;;;;;;;;;6243812;22;20024;-83
2023/03/16 12:34:02;;;;;;;6.68;1.88;;;;;;;;;;6243624;22;20012;-84
2023/03/16 12:36:51;;;;;;;9.98;2.28;;;;;;;;;;6272565;22;20424;-84
2023/03/16 12:39:21;;;;;;;4.03;1.90;;;;;;;;;;6272443;22;20022;-83
2023/03/16 12:41:47;;;;;;;7.85;2.20;;;;;;;;;;6272149;22;20523;-84
2023/03/16 12:44:18;;;;;;;7.30;2.38;;;;;;;;;;6270884;22;20038;-83
2023/03/16 12:46:52;;;;;;;6.40;2.22;;;;;;;;;;6244773;22;20115;-84
2023/03/16 12:49:19;;;;;;;5.38;2.10;;;;;;;;;;6272302;22;20062;-83
2023/03/16 12:51:57;;;;;;;4.70;2.20;;;;;;;;;;6245440;22;20024;-83
2023/03/16 12:54:24;;;;;;;6.53;2.00;;;;;;;;;;6272844;22;20031;-83
2023/03/16 12:57:07;;;;;;;6.38;2.22;;;;;;;;;;6272116;22;20024;-83
2023/03/16 12:59:37;;;;;;;6.15;2.40;;;;;;;;;;6273226;22;20032;-83
2023/03/16 13:02:05;;;;;;;4.88;2.17;;;;;;;;;;6270661;22;20879;-83
2023/03/16 13:04:43;;;;;;;4.47;1.80;;;;;;;;;;6244708;22;20108;-83
2023/03/16 13:07:16;;;;;;;4.50;1.77;;;;;;;;;;6271263;22;20009;-84
2023/03/16 13:09:48;;;;;;;4.43;1.70;;;;;;;;;;6272379;22;20136;-83
2023/03/16 13:12:22;;;;;;;4.80;1.50;;;;;;;;;;6245491;22;20032;-83
2023/03/16 13:14:53;;;;;;;5.05;1.80;;;;;;;;;;6243131;22;20034;-83
2023/03/16 13:17:19;;;;;;;4.97;1.42;;;;;;;;;;6271451;22;20016;-83
2023/03/16 13:20:08;;;;;;;5.07;1.77;;;;;;;;;;6272109;22;20028;-84
2023/03/16 13:22:42;;;;;;;6.70;1.77;;;;;;;;;;6268339;22;20051;-84
2023/03/16 13:25:17;;;;;;;4.93;1.50;;;;;;;;;;6245239;22;20028;-84
2023/03/16 13:27:48;;;;;;;6.53;1.60;;;;;;;;;;6272548;22;20017;-84
2023/03/16 13:30:16;;;;;;;5.60;1.55;;;;;;;;;;6271098;22;20030;-83
2023/03/16 13:32:43;;;;;;;5.03;2.05;;;;;;;;;;6244853;22;20480;-83
2023/03/16 13:35:12;;;;;;;4.60;1.42;;;;;;;;;;6243351;22;20078;-83
2023/03/16 13:37:41;;;;;;;5.60;1.70;;;;;;;;;;6244702;22;20024;-83
2023/03/16 13:40:16;;;;;;;4.15;1.60;;;;;;;;;;6271040;22;20052;-83
2023/03/16 13:42:45;;;;;;;6.03;1.77;;;;;;;;;;6271385;22;20416;-83
2023/03/16 13:45:14;;;;;;;6.22;1.73;;;;;;;;;;6272640;22;20028;-83
2023/03/16 13:47:41;;;;;;;6.65;1.85;;;;;;;;;;6272505;22;20032;-83
2023/03/16 13:50:12;;;;;;;5.38;1.70;;;;;;;;;;6245605;22;20096;-84
2023/03/16 13:52:40;;;;;;;4.80;1.40;;;;;;;;;;6244534;22;20028;-83
2023/03/16 13:55:14;;;;;;;5.20;1.40;;;;;;;;;;6272758;22;20457;-83
2023/03/16 13:57:42;;;;;;;6.35;1.27;;;;;;;;;;6273199;22;20057;-83
2023/03/16 14:00:16;;;;;;;5.50;1.77;;;;;;;;;;6244392;22;20059;-83
2023/03/16 14:02:44;;;;;;;6.70;1.65;;;;;;;;;;6272341;22;20024;-83
2023/03/16 14:05:11;;;;;;;5.95;1.83;;;;;;;;;;6243959;22;20043;-83
2023/03/16 14:07:38;;;;;;;4.88;1.63;;;;;;;;;;6245799;22;20043;-84
2023/03/16 14:10:05;;;;;;;4.75;1.42;;;;;;;;;;6244760;22;20811;-83
2023/03/16 14:12:31;;;;;;;7.18;1.70;;;;;;;;;;6273337;22;20028;-83
2023/03/16 14:14:58;;;;;;;5.95;1.85;;;;;;;;;;6272109;22;20108;-83
2023/03/16 14:17:27;;;;;;;6.22;1.67;;;;;;;;;;6273281;22;20031;-84
2023/03/16 14:19:58;;;;;;;4.78;1.50;;;;;;;;;;6272272;22;20050;-84
2023/03/16 14:22:32;;;;;;;3.35;1.42;;;;;;;;;;6272774;22;20028;-84
2023/03/16 14:25:00;;;;;;;5.57;1.50;;;;;;;;;;6272553;22;20066;-83
2023/03/16 14:27:38;;;;;;;5.35;1.42;;;;;;;;;;6272157;22;20032;-84
2023/03/16 14:30:15;;;;;;;6.32;1.50;;;;;;;;;;6273103;22;20460;-83
2023/03/16 14:32:52;;;;;;;8.02;1.67;;;;;;;;;;6270928;22;20110;-83
2023/03/16 14:35:20;;;;;;;4.78;1.42;;;;;;;;;;6271427;22;20082;-83
2023/03/16 14:37:50;;;;;;;3.67;1.40;;;;;;;;;;6245251;22;20020;-83
2023/03/16 14:40:29;;;;;;;5.18;1.55;;;;;;;;;;6273375;22;20052;-83
2023/03/16 14:42:57;;;;;;;4.10;1.50;;;;;;;;;;6244246;22;20107;-83
2023/03/16 14:45:29;;;;;;;4.72;1.48;;;;;;;;;;6261687;22;20024;-84
2023/03/16 14:48:00;;;;;;;4.95;1.20;;;;;;;;;;6270090;22;20035;-84